EKHL weather

Public forecast

Using degrees Celsius for public forecast. Weather courtesy of forecast.io.

Closest aviation weather report (METAR) to Holsted Helipad

Closest report is Esbjerg Airport, 12.3 nm (22.7 km) W. Retrieved 2020/08/10 04:20 UTC (4 minutes ago):

EKEB 100420Z AUTO 03005KT 9999 SCT160/// 15/12 Q1020

Closest aviation forecast (TAF) to Holsted Helipad

Forecast is more than 12 hours old.

Closest forecast is Esbjerg Airport, 12.3 nm (22.7 km) W. Retrieved 2015/09/18 18:00 UTC (5 years ago):

TAF EKEB 181707Z 1818/1822 24008KT 9999 SCT025 TEMPO 1818/1820 -SHRA SCT020CB